createdAt,value
2017-08-10T00:01:05.115Z,16.30
2017-08-10T00:03:33.456Z,16.20
2017-08-10T00:06:00.995Z,16.10
2017-08-10T00:08:28.511Z,16.10
2017-08-10T00:10:56.850Z,16.00
2017-08-10T00:13:24.371Z,16.00
2017-08-10T00:15:51.947Z,16.00
2017-08-10T00:18:19.479Z,16.10
2017-08-10T00:20:47.190Z,16.10
2017-08-10T00:23:14.754Z,16.10
2017-08-10T00:25:42.344Z,16.00
2017-08-10T00:28:10.670Z,16.00
2017-08-10T00:30:38.216Z,16.00
2017-08-10T00:33:05.783Z,16.00
2017-08-10T00:35:33.336Z,16.10
2017-08-10T00:38:00.883Z,16.10
2017-08-10T00:40:28.415Z,16.10
2017-08-10T00:42:55.973Z,16.10
2017-08-10T00:45:23.524Z,16.10
2017-08-10T00:47:51.234Z,16.20
2017-08-10T00:50:18.767Z,16.20
2017-08-10T00:52:46.302Z,16.00
2017-08-10T00:55:14.622Z,16.20
2017-08-10T00:57:42.155Z,16.20
2017-08-10T01:00:09.715Z,16.10
2017-08-10T01:02:37.235Z,16.10
2017-08-10T01:05:05.580Z,16.10
2017-08-10T01:07:33.215Z,16.10
2017-08-10T01:10:00.819Z,16.10
2017-08-10T01:12:28.375Z,16.00
2017-08-10T01:14:55.962Z,16.00
2017-08-10T01:17:23.531Z,15.90
2017-08-10T01:19:51.077Z,15.90
2017-08-10T01:22:19.429Z,16.00
2017-08-10T01:24:46.951Z,16.00
2017-08-10T01:27:14.475Z,16.00
2017-08-10T01:29:42.049Z,16.00
2017-08-10T01:32:09.584Z,16.10
2017-08-10T01:34:37.880Z,16.20
2017-08-10T01:37:05.435Z,16.20
2017-08-10T01:39:32.971Z,16.20
2017-08-10T01:42:01.311Z,16.10
2017-08-10T01:44:28.834Z,16.10
2017-08-10T01:46:56.372Z,16.00
2017-08-10T01:49:23.927Z,16.10
2017-08-10T01:51:52.389Z,16.60
2017-08-10T01:54:20.739Z,16.60
2017-08-10T01:56:48.439Z,16.60
2017-08-10T01:59:16.735Z,16.40
2017-08-10T02:01:44.279Z,16.40
2017-08-10T02:04:12.594Z,16.50
2017-08-10T02:06:40.126Z,16.50
2017-08-10T02:09:07.682Z,16.40
2017-08-10T02:11:35.212Z,16.50
2017-08-10T02:14:03.538Z,16.40
2017-08-10T02:16:31.119Z,16.40
2017-08-10T02:18:58.654Z,16.20
2017-08-10T02:21:26.174Z,16.10
2017-08-10T02:23:53.773Z,16.00
2017-08-10T02:26:21.374Z,16.00
2017-08-10T02:28:49.679Z,16.30
2017-08-10T02:31:17.275Z,16.20
2017-08-10T02:33:44.815Z,16.20
2017-08-10T02:36:12.360Z,16.10
2017-08-10T02:38:39.902Z,16.10
2017-08-10T02:41:07.464Z,16.10
2017-08-10T02:43:34.996Z,16.00
2017-08-10T02:46:03.294Z,15.90
2017-08-10T02:48:30.858Z,15.90
2017-08-10T02:50:58.413Z,16.00
2017-08-10T02:53:25.940Z,15.90
2017-08-10T02:55:53.523Z,15.80
2017-08-10T02:58:21.239Z,15.90
2017-08-10T03:00:48.739Z,15.90
2017-08-10T03:03:16.255Z,16.00
2017-08-10T03:05:43.801Z,16.00
2017-08-10T03:08:11.323Z,16.00
2017-08-10T03:10:38.979Z,15.90
2017-08-10T03:13:06.598Z,15.80
2017-08-10T03:15:34.141Z,15.80
2017-08-10T03:18:01.683Z,15.90
2017-08-10T03:20:29.258Z,15.80
2017-08-10T03:22:56.863Z,15.80
2017-08-10T03:25:25.142Z,16.10
2017-08-10T03:27:52.694Z,16.10
2017-08-10T03:30:20.215Z,16.40
2017-08-10T03:32:47.767Z,16.10
2017-08-10T03:35:15.396Z,16.10
2017-08-10T03:37:42.934Z,15.90
2017-08-10T03:40:10.498Z,15.80
2017-08-10T03:42:38.030Z,15.70
2017-08-10T03:45:06.326Z,15.70
2017-08-10T03:47:33.886Z,15.60
2017-08-10T03:50:01.401Z,15.60
2017-08-10T03:52:29.035Z,15.70
2017-08-10T03:54:56.566Z,15.70
2017-08-10T03:57:24.123Z,15.70
2017-08-10T03:59:51.686Z,15.70
2017-08-10T04:02:19.263Z,15.70
2017-08-10T04:04:46.819Z,15.80
2017-08-10T04:07:14.342Z,15.70
2017-08-10T04:09:42.650Z,15.70
2017-08-10T04:12:10.348Z,15.70
2017-08-10T04:14:37.868Z,15.70
2017-08-10T04:17:05.451Z,15.70
2017-08-10T04:19:32.988Z,15.80
2017-08-10T04:22:00.512Z,15.70
2017-08-10T04:24:28.071Z,15.70
2017-08-10T04:26:55.698Z,15.70
2017-08-10T04:29:23.263Z,16.00
2017-08-10T04:31:50.791Z,16.00
2017-08-10T04:34:18.324Z,15.90
2017-08-10T04:36:45.887Z,15.80
2017-08-10T04:39:13.430Z,15.80
2017-08-10T04:41:40.991Z,15.80
2017-08-10T04:44:08.592Z,15.80
2017-08-10T04:46:36.131Z,15.80
2017-08-10T04:49:03.681Z,15.80
2017-08-10T04:51:31.215Z,15.70
2017-08-10T04:53:58.767Z,15.70
2017-08-10T04:56:26.312Z,15.70
2017-08-10T04:58:54.715Z,15.80
2017-08-10T05:01:22.300Z,15.70
2017-08-10T05:03:49.844Z,15.70
2017-08-10T05:06:17.404Z,15.70
2017-08-10T05:08:44.935Z,15.70
2017-08-10T05:11:12.507Z,15.70
2017-08-10T05:13:40.059Z,15.70
2017-08-10T05:16:07.583Z,15.70
2017-08-10T05:18:35.139Z,15.70
2017-08-10T05:21:02.661Z,15.80
2017-08-10T05:23:30.211Z,15.80
2017-08-10T05:25:57.770Z,15.80
2017-08-10T05:28:25.303Z,15.80
2017-08-10T05:30:52.832Z,15.70
2017-08-10T05:33:21.172Z,15.70
2017-08-10T05:35:48.702Z,15.70
2017-08-10T05:38:16.224Z,15.80
2017-08-10T05:40:44.541Z,15.70
2017-08-10T05:43:12.075Z,15.60
2017-08-10T05:45:39.643Z,15.60
2017-08-10T05:48:07.175Z,15.80
2017-08-10T05:50:35.476Z,15.80
2017-08-10T05:53:03.028Z,15.80
2017-08-10T05:55:30.565Z,16.10
2017-08-10T05:57:58.918Z,15.70
2017-08-10T06:00:26.450Z,15.70
2017-08-10T06:02:54.036Z,15.50
2017-08-10T06:05:21.730Z,15.50
2017-08-10T06:07:50.035Z,15.80
2017-08-10T06:10:17.596Z,15.80
2017-08-10T06:12:45.138Z,16.10
2017-08-10T06:15:12.718Z,16.10
2017-08-10T06:17:40.247Z,16.20
2017-08-10T06:20:07.799Z,16.10
2017-08-10T06:22:36.079Z,16.00
2017-08-10T06:25:03.608Z,16.00
2017-08-10T06:27:32.015Z,15.80
2017-08-10T06:29:59.528Z,15.90
2017-08-10T06:32:27.100Z,15.80
2017-08-10T06:34:54.712Z,15.80
2017-08-10T06:37:22.287Z,15.80
2017-08-10T06:39:50.016Z,15.80
2017-08-10T06:42:17.607Z,15.80
2017-08-10T06:44:45.167Z,15.80
2017-08-10T06:47:12.684Z,15.70
2017-08-10T06:49:40.228Z,15.70
2017-08-10T06:52:08.539Z,15.60
2017-08-10T06:54:36.097Z,15.60
2017-08-10T06:57:03.695Z,15.80
2017-08-10T06:59:31.234Z,15.60
2017-08-10T07:01:58.816Z,15.70
2017-08-10T07:04:26.315Z,15.60
2017-08-10T07:06:53.861Z,15.70
2017-08-10T07:09:21.431Z,15.60
2017-08-10T07:11:48.961Z,15.60
2017-08-10T07:14:17.299Z,15.60
2017-08-10T07:16:44.819Z,15.60
2017-08-10T07:19:12.416Z,15.50
2017-08-10T07:21:39.996Z,15.50
2017-08-10T07:24:07.767Z,15.50
2017-08-10T07:26:36.195Z,15.60
2017-08-10T07:29:03.754Z,15.60
2017-08-10T07:31:31.393Z,15.60
2017-08-10T07:33:59.078Z,15.70
2017-08-10T07:36:26.627Z,15.70
2017-08-10T07:38:54.184Z,15.80
2017-08-10T07:41:21.735Z,15.80
2017-08-10T07:43:49.295Z,15.70
2017-08-10T07:46:16.968Z,15.60
2017-08-10T07:48:44.495Z,15.60
2017-08-10T07:51:12.175Z,15.70
2017-08-10T07:53:39.723Z,15.50
2017-08-10T07:56:07.256Z,15.40
2017-08-10T07:58:35.618Z,15.30
2017-08-10T08:01:03.175Z,15.30
2017-08-10T08:03:30.745Z,15.20
2017-08-10T08:05:58.282Z,15.10
2017-08-10T08:08:25.807Z,15.00
2017-08-10T08:10:53.380Z,15.00
2017-08-10T08:13:20.922Z,15.00
2017-08-10T08:15:48.482Z,15.00
2017-08-10T08:18:16.050Z,15.10
2017-08-10T08:20:43.635Z,14.90
2017-08-10T08:23:11.299Z,14.90
2017-08-10T08:25:38.811Z,15.00
2017-08-10T08:28:06.382Z,14.80
2017-08-10T08:30:33.935Z,14.90
2017-08-10T08:33:01.601Z,14.80
2017-08-10T08:35:29.354Z,14.80
2017-08-10T08:37:56.861Z,14.70
2017-08-10T08:40:24.515Z,14.80
2017-08-10T08:42:52.032Z,14.80
2017-08-10T08:45:19.535Z,15.10
2017-08-10T08:47:47.089Z,14.90
2017-08-10T08:50:14.640Z,14.80
2017-08-10T08:52:42.982Z,14.90
2017-08-10T08:55:10.483Z,14.90
2017-08-10T08:57:38.003Z,15.00
2017-08-10T09:00:05.616Z,14.90
2017-08-10T09:02:33.940Z,14.90
2017-08-10T09:05:01.480Z,14.90
2017-08-10T09:07:29.023Z,14.90
2017-08-10T09:09:56.603Z,14.70
2017-08-10T09:12:24.155Z,14.70
2017-08-10T09:14:51.684Z,14.60
2017-08-10T09:17:20.072Z,14.50
2017-08-10T09:19:47.734Z,14.50
2017-08-10T09:22:16.011Z,14.50
2017-08-10T09:24:43.569Z,14.50
2017-08-10T09:27:11.239Z,14.50
2017-08-10T09:29:38.803Z,14.50
2017-08-10T09:32:06.339Z,14.50
2017-08-10T09:34:33.864Z,14.50
2017-08-10T09:37:01.419Z,14.50
2017-08-10T09:39:28.928Z,14.40
2017-08-10T09:41:56.496Z,14.40
2017-08-10T09:44:24.026Z,14.60
2017-08-10T09:46:51.563Z,14.80
2017-08-10T09:49:19.107Z,14.50
2017-08-10T09:51:46.723Z,14.50
2017-08-10T09:54:14.271Z,14.50
2017-08-10T09:56:41.791Z,14.50
2017-08-10T09:59:09.390Z,14.70
2017-08-10T10:01:37.047Z,14.70
2017-08-10T10:04:04.736Z,14.80
2017-08-10T10:06:32.290Z,14.50
2017-08-10T10:08:59.962Z,14.80
2017-08-10T10:11:27.539Z,14.80
2017-08-10T10:13:55.079Z,14.60
2017-08-10T10:16:22.622Z,14.70
2017-08-10T10:18:50.176Z,14.30
2017-08-10T10:21:17.762Z,14.40
2017-08-10T10:23:45.321Z,14.50
2017-08-10T10:26:12.874Z,14.50
2017-08-10T10:28:40.471Z,14.40
2017-08-10T10:31:08.765Z,14.30
2017-08-10T10:33:36.326Z,14.20
2017-08-10T10:36:03.902Z,14.40
2017-08-10T10:38:31.412Z,14.60
2017-08-10T10:40:59.719Z,14.60
2017-08-10T10:43:27.263Z,14.60
2017-08-10T10:45:54.844Z,14.60
2017-08-10T10:48:22.391Z,14.50
2017-08-10T10:50:49.897Z,14.40
2017-08-10T10:53:17.436Z,14.50
2017-08-10T10:55:45.798Z,14.40
2017-08-10T10:58:13.320Z,14.40
2017-08-10T11:00:40.867Z,14.40
2017-08-10T11:03:09.144Z,14.40
2017-08-10T11:05:37.457Z,14.40
2017-08-10T11:08:04.973Z,14.40
2017-08-10T11:10:33.262Z,14.20
2017-08-10T11:13:01.608Z,14.40
2017-08-10T11:15:29.126Z,14.40
2017-08-10T11:17:56.658Z,14.40
2017-08-10T11:20:24.213Z,14.30
2017-08-10T11:22:52.503Z,14.30
2017-08-10T11:25:20.054Z,14.30
2017-08-10T11:27:47.573Z,14.20
2017-08-10T11:30:15.204Z,14.10
2017-08-10T11:32:42.758Z,14.20
2017-08-10T11:35:10.282Z,14.20
2017-08-10T11:37:37.836Z,14.30
2017-08-10T11:40:06.211Z,14.30
2017-08-10T11:42:34.609Z,14.10
2017-08-10T11:45:02.127Z,14.10
2017-08-10T11:47:30.439Z,14.20
2017-08-10T11:49:58.046Z,14.20
2017-08-10T11:52:25.564Z,14.20
2017-08-10T11:54:53.101Z,14.10
2017-08-10T11:57:20.638Z,14.00
2017-08-10T11:59:48.189Z,14.10
2017-08-10T12:02:16.502Z,13.90
2017-08-10T12:04:44.079Z,13.90
2017-08-10T12:07:11.631Z,14.00
2017-08-10T12:09:39.142Z,14.00
2017-08-10T12:12:07.440Z,14.10
2017-08-10T12:14:35.166Z,14.10
2017-08-10T12:17:02.690Z,14.10
2017-08-10T12:19:30.247Z,14.00
2017-08-10T12:21:57.784Z,14.00
2017-08-10T12:24:25.331Z,14.00
2017-08-10T12:26:53.603Z,14.00
2017-08-10T12:29:21.136Z,14.00
2017-08-10T12:31:48.690Z,14.20
2017-08-10T12:34:16.246Z,14.20
2017-08-10T12:36:43.931Z,14.10
2017-08-10T12:39:12.230Z,14.20
2017-08-10T12:41:39.864Z,14.20
2017-08-10T12:44:08.201Z,14.10
2017-08-10T12:46:35.731Z,14.10
2017-08-10T12:49:03.289Z,14.10
2017-08-10T12:51:30.843Z,14.10
2017-08-10T12:53:58.367Z,14.20
2017-08-10T12:56:26.759Z,14.10
2017-08-10T12:58:54.334Z,14.10
2017-08-10T13:01:22.038Z,14.10
2017-08-10T13:03:49.615Z,14.20
2017-08-10T13:06:17.138Z,14.10
2017-08-10T13:08:44.839Z,14.20
2017-08-10T13:11:13.179Z,14.00
2017-08-10T13:13:40.854Z,14.00
2017-08-10T13:16:08.415Z,14.20
2017-08-10T13:18:35.999Z,14.10
2017-08-10T13:21:04.306Z,14.20
2017-08-10T13:23:31.890Z,14.10
2017-08-10T13:25:59.503Z,14.10
2017-08-10T13:28:27.046Z,14.00
2017-08-10T13:30:55.358Z,14.00
2017-08-10T13:33:22.967Z,14.00
2017-08-10T13:35:51.271Z,14.00
2017-08-10T13:38:18.802Z,13.90
2017-08-10T13:40:46.367Z,13.90
2017-08-10T13:43:14.663Z,13.70
2017-08-10T13:45:42.258Z,13.70
2017-08-10T13:48:09.890Z,13.80
2017-08-10T13:50:37.427Z,13.80
2017-08-10T13:53:05.743Z,13.90
2017-08-10T13:55:33.283Z,13.80
2017-08-10T13:58:00.854Z,14.10
2017-08-10T14:00:28.391Z,13.90
2017-08-10T14:02:56.019Z,14.10
2017-08-10T14:05:23.636Z,14.10
2017-08-10T14:07:51.176Z,14.00
2017-08-10T14:10:18.751Z,14.10
2017-08-10T14:12:46.275Z,14.10
2017-08-10T14:15:13.844Z,14.00
2017-08-10T14:17:42.137Z,14.00
2017-08-10T14:20:09.719Z,14.00
2017-08-10T14:22:37.279Z,14.10
2017-08-10T14:25:04.843Z,14.10
2017-08-10T14:27:32.394Z,13.90
2017-08-10T14:29:59.930Z,14.20
2017-08-10T14:32:27.570Z,14.00
2017-08-10T14:34:55.109Z,13.90
2017-08-10T14:37:23.416Z,13.80
2017-08-10T14:39:50.959Z,13.80
2017-08-10T14:42:18.576Z,13.90
2017-08-10T14:44:46.145Z,13.90
2017-08-10T14:47:13.673Z,13.90
2017-08-10T14:49:41.194Z,14.00
2017-08-10T14:52:08.775Z,13.80
2017-08-10T14:54:36.308Z,14.00
2017-08-10T14:57:03.895Z,14.10
2017-08-10T14:59:31.426Z,14.20
2017-08-10T15:01:58.966Z,14.30
2017-08-10T15:04:27.288Z,14.40
2017-08-10T15:06:54.859Z,14.40
2017-08-10T15:09:22.398Z,14.40
2017-08-10T15:11:49.936Z,14.60
2017-08-10T15:14:17.527Z,14.60
2017-08-10T15:16:45.052Z,14.40
2017-08-10T15:19:12.576Z,14.60
2017-08-10T15:21:40.929Z,14.60
2017-08-10T15:24:08.597Z,14.60
2017-08-10T15:26:36.154Z,14.50
2017-08-10T15:29:03.695Z,14.30
2017-08-10T15:31:31.236Z,14.50
2017-08-10T15:33:58.787Z,14.80
2017-08-10T15:36:26.623Z,15.10
2017-08-10T15:38:54.995Z,15.10
2017-08-10T15:41:23.290Z,15.10
2017-08-10T15:43:50.862Z,15.10
2017-08-10T15:46:18.399Z,15.20
2017-08-10T15:48:45.979Z,15.20
2017-08-10T15:51:14.279Z,15.00
2017-08-10T15:53:41.810Z,15.00
2017-08-10T15:56:09.367Z,14.90
2017-08-10T15:58:37.680Z,15.00
2017-08-10T16:01:05.287Z,14.90
2017-08-10T16:03:33.580Z,14.70
2017-08-10T16:06:01.873Z,15.10
2017-08-10T16:08:29.435Z,15.10
2017-08-10T16:10:56.960Z,15.20
2017-08-10T16:13:25.299Z,14.80
2017-08-10T16:15:52.823Z,14.80
2017-08-10T16:18:20.355Z,15.00
2017-08-10T16:20:48.726Z,14.80
2017-08-10T16:23:17.011Z,15.10
2017-08-10T16:25:45.347Z,14.70
2017-08-10T16:28:12.872Z,14.60
2017-08-10T16:30:40.435Z,14.60
2017-08-10T16:33:07.989Z,15.00
2017-08-10T16:35:35.518Z,15.00
2017-08-10T16:38:03.861Z,15.20
2017-08-10T16:40:31.465Z,15.20
2017-08-10T16:42:59.095Z,15.10
2017-08-10T16:45:26.650Z,15.00
2017-08-10T16:47:54.210Z,15.10
2017-08-10T16:50:21.735Z,15.10
2017-08-10T16:52:49.272Z,14.70
2017-08-10T16:55:16.831Z,14.40
2017-08-10T16:57:44.372Z,14.40
2017-08-10T17:00:11.905Z,14.60
2017-08-10T17:02:40.235Z,14.90
2017-08-10T17:05:07.769Z,14.90
2017-08-10T17:07:35.332Z,15.10
2017-08-10T17:10:02.852Z,14.80
2017-08-10T17:12:31.190Z,15.00
2017-08-10T17:14:58.802Z,15.00
2017-08-10T17:17:27.236Z,15.10
2017-08-10T17:19:54.811Z,15.10
2017-08-10T17:22:22.364Z,15.00
2017-08-10T17:24:50.005Z,14.80
2017-08-10T17:27:17.580Z,14.70
2017-08-10T17:29:45.122Z,14.80
2017-08-10T17:32:12.703Z,14.80
2017-08-10T17:34:40.347Z,14.80
2017-08-10T17:37:07.928Z,14.80
2017-08-10T17:39:35.471Z,14.90
2017-08-10T17:42:03.183Z,14.80
2017-08-10T17:44:30.748Z,14.80
2017-08-10T17:46:58.291Z,14.90
2017-08-10T17:49:25.950Z,14.60
2017-08-10T17:51:53.491Z,14.80
2017-08-10T17:54:21.830Z,14.60
2017-08-10T17:56:49.362Z,14.60
2017-08-10T17:59:16.900Z,14.60
2017-08-10T18:01:44.476Z,14.70
2017-08-10T18:04:12.083Z,14.60
2017-08-10T18:06:39.666Z,14.60
2017-08-10T18:09:07.990Z,14.60
2017-08-10T18:11:35.567Z,14.60
2017-08-10T18:14:03.112Z,14.60
2017-08-10T18:16:30.665Z,14.60
2017-08-10T18:18:58.221Z,14.50
2017-08-10T18:21:25.785Z,14.70
2017-08-10T18:23:53.439Z,14.60
2017-08-10T18:26:21.088Z,14.60
2017-08-10T18:28:48.614Z,14.70
2017-08-10T18:31:16.211Z,14.70
2017-08-10T18:33:43.730Z,14.70
2017-08-10T18:36:12.055Z,14.50
2017-08-10T18:38:39.641Z,14.50
2017-08-10T18:41:07.219Z,14.50
2017-08-10T18:43:35.474Z,14.60
2017-08-10T18:46:03.132Z,14.50
2017-08-10T18:48:31.578Z,14.50
2017-08-10T18:50:59.127Z,14.40
2017-08-10T18:53:26.720Z,14.50
2017-08-10T18:55:54.342Z,14.40
2017-08-10T18:58:21.902Z,14.50
2017-08-10T19:00:49.457Z,14.40
2017-08-10T19:03:17.246Z,14.30
2017-08-10T19:05:44.965Z,14.30
2017-08-10T19:08:12.809Z,14.30
2017-08-10T19:10:41.261Z,14.30
2017-08-10T19:13:08.942Z,14.30
2017-08-10T19:15:37.283Z,14.30
2017-08-10T19:18:05.337Z,14.30
2017-08-10T19:20:33.307Z,14.20
2017-08-10T19:23:01.384Z,14.20
2017-08-10T19:25:29.163Z,14.10
2017-08-10T19:27:56.922Z,14.10
2017-08-10T19:30:24.870Z,14.10
2017-08-10T19:32:52.732Z,14.10
2017-08-10T19:35:20.736Z,14.10
2017-08-10T19:37:49.385Z,14.10
2017-08-10T19:40:17.251Z,14.10
2017-08-10T19:42:45.215Z,14.10
2017-08-10T19:45:13.185Z,14.10
2017-08-10T19:47:41.150Z,14.10
2017-08-10T19:50:08.991Z,14.10
2017-08-10T19:52:36.983Z,14.10
2017-08-10T19:55:05.054Z,14.10
2017-08-10T19:57:32.859Z,14.10
2017-08-10T20:00:01.501Z,14.10
2017-08-10T20:02:29.366Z,14.10
2017-08-10T20:04:57.231Z,14.20
2017-08-10T20:07:24.838Z,14.10
2017-08-10T20:09:52.381Z,14.20
2017-08-10T20:12:20.025Z,14.20
2017-08-10T20:14:47.574Z,14.10
2017-08-10T20:17:15.135Z,14.20
2017-08-10T20:19:42.804Z,14.10
2017-08-10T20:22:10.346Z,14.10
2017-08-10T20:24:38.030Z,14.00
2017-08-10T20:27:05.632Z,14.00
2017-08-10T20:29:34.161Z,14.00
2017-08-10T20:32:01.806Z,13.90
2017-08-10T20:34:29.334Z,13.90
2017-08-10T20:36:57.699Z,14.00
2017-08-10T20:39:25.991Z,14.00
2017-08-10T20:41:53.570Z,14.00
2017-08-10T20:44:21.098Z,13.90
2017-08-10T20:46:49.459Z,13.80
2017-08-10T20:49:17.060Z,13.80
2017-08-10T20:51:44.623Z,13.90
2017-08-10T20:54:12.151Z,13.80
2017-08-10T20:56:39.715Z,13.80
2017-08-10T20:59:07.243Z,13.90
2017-08-10T21:01:34.802Z,13.80
2017-08-10T21:04:02.337Z,13.80
2017-08-10T21:06:29.911Z,13.80
2017-08-10T21:08:57.472Z,13.60
2017-08-10T21:11:25.022Z,13.60
2017-08-10T21:13:52.710Z,13.60
2017-08-10T21:16:21.002Z,13.60
2017-08-10T21:18:48.567Z,13.50
2017-08-10T21:21:16.206Z,13.50
2017-08-10T21:23:44.499Z,13.50
2017-08-10T21:26:12.067Z,13.50
2017-08-10T21:28:39.608Z,13.50
2017-08-10T21:31:07.900Z,13.50
2017-08-10T21:33:35.464Z,13.50
2017-08-10T21:36:03.059Z,13.50
2017-08-10T21:38:30.620Z,13.60
2017-08-10T21:40:58.160Z,13.60
2017-08-10T21:43:25.771Z,13.70
2017-08-10T21:45:54.156Z,13.70
2017-08-10T21:48:21.932Z,13.70
2017-08-10T21:50:49.506Z,13.70
2017-08-10T21:53:17.023Z,13.70
2017-08-10T21:55:44.591Z,13.70
2017-08-10T21:58:12.166Z,13.80
2017-08-10T22:00:39.700Z,13.80
2017-08-10T22:03:07.246Z,13.80
2017-08-10T22:05:35.735Z,13.90
2017-08-10T22:08:04.050Z,13.90
2017-08-10T22:10:31.578Z,13.90
2017-08-10T22:12:59.167Z,13.80
2017-08-10T22:15:26.702Z,13.90
2017-08-10T22:17:54.256Z,14.00
2017-08-10T22:20:21.784Z,13.90
2017-08-10T22:22:50.106Z,13.50
2017-08-10T22:25:17.670Z,13.50
2017-08-10T22:27:45.195Z,13.40
2017-08-10T22:30:12.771Z,13.40
2017-08-10T22:32:40.439Z,13.40
2017-08-10T22:35:07.999Z,13.50
2017-08-10T22:37:35.559Z,13.50
2017-08-10T22:40:03.087Z,13.50
2017-08-10T22:42:30.646Z,13.70
2017-08-10T22:44:58.172Z,13.60
2017-08-10T22:47:25.724Z,13.80
2017-08-10T22:49:53.258Z,14.00
2017-08-10T22:52:20.810Z,14.00
2017-08-10T22:54:48.364Z,14.10
2017-08-10T22:57:15.886Z,13.80
2017-08-10T22:59:43.454Z,13.90
2017-08-10T23:02:11.063Z,14.00
2017-08-10T23:04:38.591Z,13.90
2017-08-10T23:07:06.163Z,14.00
2017-08-10T23:09:33.683Z,14.10
2017-08-10T23:12:01.284Z,14.00
2017-08-10T23:14:28.851Z,13.90
2017-08-10T23:16:56.379Z,14.00
2017-08-10T23:19:23.924Z,14.10
2017-08-10T23:21:51.610Z,14.10
2017-08-10T23:24:19.342Z,14.00
2017-08-10T23:26:46.965Z,14.00
2017-08-10T23:29:14.502Z,14.10
2017-08-10T23:31:42.080Z,14.10
2017-08-10T23:34:09.601Z,13.80
2017-08-10T23:36:37.126Z,14.00
2017-08-10T23:39:04.686Z,13.90
2017-08-10T23:41:32.215Z,14.00
2017-08-10T23:43:59.755Z,14.10
2017-08-10T23:46:27.318Z,14.10
2017-08-10T23:48:54.854Z,14.00
2017-08-10T23:51:22.410Z,14.10
2017-08-10T23:53:49.959Z,13.90
2017-08-10T23:56:17.522Z,14.00
2017-08-10T23:58:45.046Z,14.00
